Time;durP1;ratioP1;P1;durP2;ratioP2;P2;SDS_P1;SDS_P2;PMS_P1;PMS_P2;Temp;Humidity;BMP_temperature;BMP_pressure;BME280_temperature;BME280_humidity;BME280_pressure;Samples;Min_cycle;Max_cycle;Signal;HPM_P1;HPM_P2
2022/09/26 00:01:54;;;;;;;13.57;12.27;;;19.30;92.30;;;;;;6246717;23;20004;-84
2022/09/26 00:04:25;;;;;;;12.88;11.48;;;19.30;92.30;;;;;;6245553;23;20035;-85
2022/09/26 00:06:53;;;;;;;12.27;11.07;;;19.20;92.30;;;;;;6246147;23;20008;-82
2022/09/26 00:09:19;;;;;;;12.35;10.73;;;19.20;92.30;;;;;;6245276;23;20058;-83
2022/09/26 00:11:45;;;;;;;12.57;11.27;;;19.20;92.40;;;;;;6245707;23;19996;-82
2022/09/26 00:14:15;;;;;;;13.52;12.10;;;19.20;92.40;;;;;;6245217;23;20005;-84
2022/09/26 00:16:41;;;;;;;12.27;10.98;;;19.10;92.40;;;;;;6246203;23;20408;-85
2022/09/26 00:19:07;;;;;;;11.82;10.65;;;19.10;92.40;;;;;;6245645;23;20000;-82
2022/09/26 00:21:34;;;;;;;12.95;11.65;;;19.10;92.40;;;;;;6245547;23;20004;-82
2022/09/26 00:24:01;;;;;;;12.85;11.48;;;19.20;92.50;;;;;;6245051;23;20000;-83
2022/09/26 00:26:29;;;;;;;12.88;11.57;;;19.20;92.40;;;;;;6245455;23;20051;-83
2022/09/26 00:28:56;;;;;;;13.68;12.23;;;19.20;92.40;;;;;;6245863;23;20000;-84
2022/09/26 00:31:25;;;;;;;13.68;12.38;;;19.20;92.30;;;;;;6245448;23;19997;-83
2022/09/26 00:33:51;;;;;;;13.50;12.20;;;19.10;92.20;;;;;;6245010;23;20004;-83
2022/09/26 00:36:17;;;;;;;14.75;13.25;;;19.10;92.20;;;;;;6243910;23;20001;-83
2022/09/26 00:38:44;;;;;;;14.32;12.82;;;19.10;92.20;;;;;;6245271;23;20130;-83
2022/09/26 00:41:10;;;;;;;15.15;12.15;;;19.10;92.20;;;;;;6246048;23;20008;-83
2022/09/26 00:43:37;;;;;;;14.07;12.63;;;19.10;92.20;;;;;;6245929;23;20032;-83
2022/09/26 00:46:27;;;;;;;14.20;12.77;;;19.00;92.30;;;;;;6244675;23;20000;-83
2022/09/26 00:49:13;;;;;;;15.52;13.70;;;19.00;92.30;;;;;;6245764;23;20090;-83
2022/09/26 00:51:42;;;;;;;13.32;11.43;;;19.00;92.40;;;;;;6234839;23;20010;-84
2022/09/26 00:54:15;;;;;;;12.13;10.93;;;18.90;92.30;;;;;;6245840;23;20295;-83
2022/09/26 00:56:43;;;;;;;14.02;12.52;;;18.90;92.40;;;;;;6245391;23;20023;-83
2022/09/26 00:59:34;;;;;;;14.95;13.43;;;18.80;92.40;;;;;;6245456;23;20071;-82
2022/09/26 01:02:01;;;;;;;13.93;12.52;;;18.80;92.50;;;;;;6245461;23;20004;-82
2022/09/26 01:04:29;;;;;;;13.13;11.93;;;18.80;92.50;;;;;;6244913;23;20019;-84
2022/09/26 01:06:57;;;;;;;14.25;12.75;;;18.80;92.50;;;;;;6245396;23;20080;-83
2022/09/26 01:09:23;;;;;;;14.07;12.48;;;18.70;92.50;;;;;;6244989;23;20007;-83
2022/09/26 01:11:48;;;;;;;16.70;11.65;;;18.70;92.50;;;;;;6245782;23;19997;-84
2022/09/26 01:14:14;;;;;;;12.20;10.95;;;18.70;92.50;;;;;;6245830;23;20011;-83
2022/09/26 01:16:45;;;;;;;17.95;13.93;;;18.70;92.50;;;;;;6244253;23;20023;-83
2022/09/26 01:19:22;;;;;;;;;;;18.70;92.50;;;;;;6245043;23;20004;-83
2022/09/26 01:22:18;;;;;;;13.52;12.13;;;18.70;92.50;;;;;;6245743;23;20332;-83
2022/09/26 01:25:29;;;;;;;14.18;11.43;;;18.70;92.40;;;;;;6245136;23;20004;-83
2022/09/26 01:28:24;;;;;;;13.55;12.15;;;18.70;92.40;;;;;;6241697;23;20375;-83
2022/09/26 01:30:50;;;;;;;13.70;12.38;;;18.80;92.50;;;;;;6218003;23;20036;-83
2022/09/26 01:33:29;;;;;;;14.05;12.38;;;18.70;92.40;;;;;;6244984;23;20003;-82
2022/09/26 01:35:58;;;;;;;13.67;12.33;;;18.70;92.40;;;;;;6244872;23;20012;-83
2022/09/26 01:38:48;;;;;;;14.13;12.73;;;18.70;92.40;;;;;;6218215;23;20014;-82
2022/09/26 01:41:33;;;;;;;16.10;11.90;;;18.70;92.40;;;;;;6244680;23;20012;-82
2022/09/26 01:43:58;;;;;;;12.75;11.30;;;18.70;92.40;;;;;;6245093;23;20023;-81
2022/09/26 01:46:35;;;;;;;13.43;12.13;;;18.70;92.40;;;;;;6244797;23;20070;-82
2022/09/26 01:49:19;;;;;;;13.93;12.52;;;18.60;92.40;;;;;;6244661;23;20024;-83
2022/09/26 01:51:59;;;;;;;13.32;12.02;;;18.70;92.40;;;;;;6244954;23;19997;-84
2022/09/26 01:54:54;;;;;;;13.48;11.23;;;18.70;92.50;;;;;;6244238;23;20075;-84
2022/09/26 01:57:36;;;;;;;13.82;11.40;;;18.70;92.40;;;;;;6187725;23;20000;-83
2022/09/26 02:00:05;;;;;;;14.27;12.60;;;18.70;92.30;;;;;;6245421;23;20004;-81
2022/09/26 02:02:35;;;;;;;13.68;12.38;;;18.70;92.30;;;;;;6218087;23;20014;-86
2022/09/26 02:05:13;;;;;;;13.75;11.88;;;18.70;92.20;;;;;;6245289;23;20015;-85
2022/09/26 02:07:46;;;;;;;14.57;13.07;;;18.70;92.20;;;;;;6246168;23;20004;-85
2022/09/26 02:10:20;;;;;;;13.20;11.77;;;18.60;92.20;;;;;;6246613;23;20024;-87
2022/09/26 02:12:53;;;;;;;14.25;12.27;;;18.60;92.30;;;;;;6245892;23;20079;-85
2022/09/26 02:15:22;;;;;;;13.32;11.95;;;18.50;92.20;;;;;;6245347;23;20044;-87
2022/09/26 02:17:52;;;;;;;14.68;10.90;;;18.50;92.30;;;;;;6245716;23;20004;-86
2022/09/26 02:20:23;;;;;;;;;;;18.50;92.30;;;;;;6246036;23;20034;-86
2022/09/26 02:22:49;;;;;;;13.43;12.02;;;18.40;92.40;;;;;;6244731;23;19899;-84
2022/09/26 02:25:15;;;;;;;14.40;12.85;;;18.50;92.50;;;;;;6244966;23;20008;-84
2022/09/26 02:27:40;;;;;;;14.55;13.05;;;18.50;92.50;;;;;;6244441;23;20000;-84
2022/09/26 02:30:07;;;;;;;14.75;13.15;;;18.50;92.50;;;;;;6245460;23;20011;-85
2022/09/26 02:32:33;;;;;;;15.55;13.68;;;18.50;92.60;;;;;;6245555;23;20042;-84
2022/09/26 02:35:00;;;;;;;13.05;11.65;;;18.50;92.50;;;;;;6244268;23;20050;-83
2022/09/26 02:37:27;;;;;;;15.45;13.82;;;18.50;92.50;;;;;;6245024;23;20008;-82
2022/09/26 02:39:54;;;;;;;15.05;13.45;;;18.50;92.50;;;;;;6243844;23;20046;-82
2022/09/26 02:42:50;;;;;;;15.30;13.50;;;18.50;92.40;;;;;;6243839;23;20116;-81
2022/09/26 02:45:41;;;;;;;13.15;11.77;;;18.50;92.40;;;;;;6244352;23;20024;-81
2022/09/26 02:48:07;;;;;;;14.77;12.55;;;18.50;92.40;;;;;;6245520;23;20083;-82
2022/09/26 02:50:59;;;;;;;14.88;13.38;;;18.50;92.40;;;;;;6245698;23;20003;-84
2022/09/26 02:53:34;;;;;;;13.73;12.32;;;18.50;92.30;;;;;;6246898;23;20000;-84
2022/09/26 02:56:28;;;;;;;14.18;12.77;;;18.60;92.30;;;;;;6247031;23;20063;-85
2022/09/26 02:59:15;;;;;;;14.27;12.77;;;18.50;92.30;;;;;;6247326;23;20014;-84
2022/09/26 03:01:52;;;;;;;15.00;13.40;;;18.50;92.20;;;;;;6220121;23;20423;-85
2022/09/26 03:04:47;;;;;;;14.35;12.82;;;18.60;92.20;;;;;;6246853;23;20352;-85
2022/09/26 03:07:19;;;;;;;14.18;12.68;;;18.50;92.10;;;;;;6247769;23;20881;-83
2022/09/26 03:09:47;;;;;;;14.30;12.90;;;18.50;92.20;;;;;;6247696;23;20007;-83
2022/09/26 03:12:13;;;;;;;14.95;12.75;;;18.50;92.20;;;;;;6247501;23;20031;-83
2022/09/26 03:14:42;;;;;;;13.65;12.23;;;18.50;92.20;;;;;;6247352;23;20004;-83
2022/09/26 03:17:08;;;;;;;13.98;12.57;;;18.50;92.20;;;;;;6247235;23;20335;-85
2022/09/26 03:19:58;;;;;;;14.07;12.68;;;18.50;92.20;;;;;;6247526;23;20111;-83
2022/09/26 03:22:24;;;;;;;12.80;11.48;;;18.50;92.30;;;;;;6220246;23;20008;-84
2022/09/26 03:24:50;;;;;;;13.20;11.93;;;18.50;92.40;;;;;;6246966;23;20039;-83
2022/09/26 03:27:16;;;;;;;14.60;13.10;;;18.40;92.20;;;;;;6247145;23;20075;-84
2022/09/26 03:29:42;;;;;;;14.80;12.23;;;18.40;92.20;;;;;;6220704;23;20078;-83
2022/09/26 03:32:08;;;;;;;13.93;12.52;;;18.40;92.20;;;;;;6220786;23;20004;-84
2022/09/26 03:34:38;;;;;;;14.10;12.68;;;18.40;92.20;;;;;;6247694;23;20010;-85
2022/09/26 03:37:05;;;;;;;13.85;12.45;;;18.40;92.20;;;;;;6246571;23;20004;-86
2022/09/26 03:39:31;;;;;;;15.40;13.80;;;18.40;92.20;;;;;;6246735;23;20008;-86
2022/09/26 03:41:57;;;;;;;14.57;12.32;;;18.40;92.20;;;;;;6246639;23;20087;-85
2022/09/26 03:44:24;;;;;;;14.77;12.93;;;18.40;92.20;;;;;;6246665;23;20365;-85
2022/09/26 03:46:50;;;;;;;14.88;13.27;;;18.40;92.30;;;;;;6247041;23;20054;-85
2022/09/26 03:49:16;;;;;;;15.15;13.63;;;18.30;92.30;;;;;;6246644;23;20071;-85
2022/09/26 03:51:43;;;;;;;14.95;13.43;;;18.30;92.30;;;;;;6246809;23;20477;-85
2022/09/26 03:54:10;;;;;;;14.48;13.00;;;18.30;92.30;;;;;;6247120;23;19996;-82
2022/09/26 03:56:41;;;;;;;14.15;12.77;;;18.40;92.30;;;;;;6246494;23;20000;-81
2022/09/26 03:59:07;;;;;;;15.05;13.43;;;18.30;92.30;;;;;;6218561;23;20640;-82
2022/09/26 04:01:34;;;;;;;14.63;12.95;;;18.20;92.30;;;;;;6246140;23;20011;-81
2022/09/26 04:04:00;;;;;;;13.15;11.77;;;18.20;92.40;;;;;;6245641;23;20014;-82
2022/09/26 04:06:25;;;;;;;15.98;13.15;;;18.20;92.40;;;;;;6245386;23;20008;-81
2022/09/26 04:08:52;;;;;;;12.63;11.32;;;18.20;92.50;;;;;;6246307;23;20320;-80
2022/09/26 04:11:20;;;;;;;16.13;13.88;;;18.20;92.50;;;;;;6219162;23;20000;-79
2022/09/26 04:13:47;;;;;;;14.88;13.38;;;18.20;92.40;;;;;;6245287;23;20046;-80
2022/09/26 04:16:13;;;;;;;14.80;13.18;;;18.20;92.40;;;;;;6218910;23;20087;-81
2022/09/26 04:18:39;;;;;;;13.90;12.52;;;18.20;92.40;;;;;;6246398;23;20032;-80
2022/09/26 04:21:14;;;;;;;15.07;12.88;;;18.20;92.50;;;;;;6246274;23;20004;-82
2022/09/26 04:23:41;;;;;;;15.23;13.63;;;18.30;92.50;;;;;;6245838;23;20010;-81
2022/09/26 04:26:09;;;;;;;17.77;14.90;;;18.30;92.40;;;;;;6246127;23;20356;-81
2022/09/26 04:28:35;;;;;;;14.95;13.10;;;18.20;92.40;;;;;;6244556;23;20011;-81
2022/09/26 04:31:05;;;;;;;16.77;14.35;;;18.20;92.40;;;;;;6246581;23;19996;-81
2022/09/26 04:33:31;;;;;;;15.33;13.77;;;18.20;92.40;;;;;;6246330;23;20091;-82
2022/09/26 04:36:04;;;;;;;15.95;14.23;;;18.10;92.40;;;;;;6245761;23;20226;-81
2022/09/26 04:38:33;;;;;;;15.10;13.50;;;18.00;92.50;;;;;;6245996;23;20028;-80
2022/09/26 04:41:09;;;;;;;17.33;14.30;;;18.00;92.60;;;;;;6245589;23;20027;-82
2022/09/26 04:43:36;;;;;;;16.35;14.32;;;17.90;92.90;;;;;;6246034;23;20004;-82
2022/09/26 04:46:06;;;;;;;16.65;13.38;;;17.90;92.70;;;;;;6246148;23;20423;-81
2022/09/26 04:48:32;;;;;;;14.85;13.35;;;17.80;92.70;;;;;;6245221;23;20007;-81
2022/09/26 04:50:57;;;;;;;15.85;14.25;;;17.90;92.80;;;;;;6218597;23;20004;-81
2022/09/26 04:53:23;;;;;;;17.08;15.27;;;17.90;92.90;;;;;;6245710;23;20023;-81
2022/09/26 04:55:52;;;;;;;14.68;12.98;;;17.90;92.80;;;;;;6245946;23;20403;-83
2022/09/26 04:58:17;;;;;;;16.67;13.40;;;18.00;92.80;;;;;;6218772;23;20008;-82
2022/09/26 05:00:46;;;;;;;15.45;13.40;;;17.90;92.70;;;;;;6219111;23;20004;-83
2022/09/26 05:03:12;;;;;;;14.70;13.20;;;17.90;92.80;;;;;;6244826;23;20050;-82
2022/09/26 05:06:22;;;;;;;16.52;14.63;;;17.90;92.80;;;;;;6244739;23;20438;-81
2022/09/26 05:15:09;;;;;;;17.05;13.40;;;17.80;92.60;;;;;;6165544;23;20024;-81
2022/09/26 05:17:36;;;;;;;15.77;14.15;;;17.90;92.70;;;;;;6181744;23;20121;-80
2022/09/26 05:20:07;;;;;;;14.68;12.18;;;18.00;92.80;;;;;;6227513;23;20335;-80
2022/09/26 05:22:33;;;;;;;15.35;13.23;;;17.90;92.70;;;;;;6245298;23;20005;-84
2022/09/26 05:27:43;;;;;;;17.05;14.35;;;17.90;92.90;;;;;;6245752;23;20014;-86
2022/09/26 05:30:11;;;;;;;15.55;13.82;;;17.90;93.00;;;;;;6245698;23;20071;-86
2022/09/26 05:32:38;;;;;;;17.58;14.73;;;17.90;93.00;;;;;;6244154;23;20004;-83
2022/09/26 05:35:04;;;;;;;16.13;14.10;;;17.90;93.00;;;;;;6218349;23;20075;-83
2022/09/26 05:37:30;;;;;;;16.23;14.45;;;17.90;93.00;;;;;;6245407;23;19996;-83
2022/09/26 05:42:40;;;;;;;20.52;18.13;;;17.90;93.10;;;;;;6243512;23;20445;-82
2022/09/26 05:45:07;;;;;;;16.50;14.80;;;17.90;93.20;;;;;;6244633;23;20087;-82
2022/09/26 05:47:35;;;;;;;18.48;16.58;;;17.80;93.10;;;;;;6245117;23;19996;-82
2022/09/26 05:50:08;;;;;;;17.35;15.55;;;17.90;93.20;;;;;;6243819;23;20000;-79
2022/09/26 05:52:34;;;;;;;17.83;16.02;;;17.80;93.10;;;;;;6244965;23;20362;-80
2022/09/26 05:55:00;;;;;;;18.60;16.70;;;17.80;93.10;;;;;;6245088;23;19996;-80
2022/09/26 05:57:26;;;;;;;20.88;16.42;;;17.80;93.10;;;;;;6245757;23;20008;-85
2022/09/26 05:59:52;;;;;;;18.42;16.33;;;17.80;93.10;;;;;;6244335;23;20004;-85
2022/09/26 06:02:17;;;;;;;18.67;16.75;;;17.80;93.20;;;;;;6244912;23;19996;-86
2022/09/26 06:04:43;;;;;;;20.55;15.77;;;17.80;93.10;;;;;;6218002;23;20016;-86
2022/09/26 06:07:09;;;;;;;18.92;16.88;;;17.80;93.10;;;;;;6245628;23;20334;-86
2022/09/26 06:09:35;;;;;;;19.23;17.02;;;17.70;93.10;;;;;;6245474;23;20074;-86
2022/09/26 06:12:00;;;;;;;18.27;16.38;;;17.70;93.20;;;;;;6243983;23;20356;-84
2022/09/26 06:14:27;;;;;;;19.38;17.02;;;17.70;93.20;;;;;;6245313;23;20423;-84
2022/09/26 06:16:52;;;;;;;20.17;18.00;;;17.70;93.10;;;;;;6217047;23;20008;-85
2022/09/26 06:19:18;;;;;;;18.85;16.80;;;17.70;93.10;;;;;;6243636;23;20421;-86
2022/09/26 06:21:44;;;;;;;17.17;14.98;;;17.80;93.10;;;;;;6242883;23;20075;-86
2022/09/26 06:24:10;;;;;;;21.90;17.08;;;17.80;93.10;;;;;;6244966;23;20030;-84
2022/09/26 06:26:36;;;;;;;18.23;16.33;;;17.80;93.10;;;;;;6244942;23;20007;-87
2022/09/26 06:29:02;;;;;;;20.20;18.10;;;17.80;93.10;;;;;;6245855;23;20008;-86
2022/09/26 06:31:29;;;;;;;22.52;17.95;;;17.80;93.10;;;;;;6245693;23;20008;-84
2022/09/26 06:33:54;;;;;;;20.42;18.33;;;17.80;93.10;;;;;;6244782;23;20027;-81
2022/09/26 06:36:22;;;;;;;19.30;16.85;;;17.70;93.10;;;;;;6244066;23;20075;-83
2022/09/26 06:38:48;;;;;;;22.00;18.77;;;17.70;93.10;;;;;;6244300;23;20011;-82
2022/09/26 06:41:15;;;;;;;23.15;20.42;;;17.70;93.10;;;;;;6244485;23;20011;-86
2022/09/26 06:43:43;;;;;;;22.08;19.70;;;17.60;93.20;;;;;;6217885;23;20008;-82
2022/09/26 06:46:09;;;;;;;20.88;18.55;;;17.40;93.60;;;;;;6245210;23;20054;-87
2022/09/26 06:48:35;;;;;;;18.90;16.67;;;17.40;93.50;;;;;;6245288;23;20004;-87
2022/09/26 06:51:01;;;;;;;19.67;16.40;;;17.40;93.60;;;;;;6244519;23;20079;-87
2022/09/26 06:53:27;;;;;;;20.75;17.60;;;17.40;93.70;;;;;;6246111;23;20407;-87
2022/09/26 06:55:53;;;;;;;21.45;19.17;;;17.40;93.70;;;;;;6218312;23;20087;-88
2022/09/26 06:58:19;;;;;;;30.10;25.92;;;17.40;93.70;;;;;;6245662;23;20334;-87
2022/09/26 07:00:45;;;;;;;25.35;22.67;;;17.40;93.70;;;;;;6245326;23;20055;-87
2022/09/26 07:03:12;;;;;;;27.50;24.42;;;17.30;93.80;;;;;;6245131;23;20003;-88
2022/09/26 07:05:38;;;;;;;20.55;18.38;;;17.20;94.10;;;;;;6244198;23;20012;-84
2022/09/26 07:08:04;;;;;;;20.60;18.38;;;17.20;94.20;;;;;;6245869;23;20008;-84
2022/09/26 07:10:33;;;;;;;22.55;19.25;;;17.20;94.10;;;;;;6244253;23;20682;-83
2022/09/26 07:13:04;;;;;;;19.90;17.80;;;17.30;94.00;;;;;;6241077;23;20000;-84
2022/09/26 07:15:32;;;;;;;20.00;16.50;;;17.40;94.00;;;;;;6214564;23;20112;-83
2022/09/26 07:18:03;;;;;;;20.33;18.02;;;17.50;93.90;;;;;;6242692;23;20004;-86
2022/09/26 07:20:32;;;;;;;20.92;17.92;;;17.60;93.70;;;;;;6216277;23;20008;-85
2022/09/26 07:23:05;;;;;;;18.65;16.73;;;17.70;93.90;;;;;;6242919;23;20004;-86
2022/09/26 07:25:32;;;;;;;19.73;17.45;;;17.80;93.60;;;;;;6243719;23;20031;-86
2022/09/26 07:27:58;;;;;;;22.00;18.70;;;17.90;93.50;;;;;;6242038;23;20027;-88
2022/09/26 07:30:24;;;;;;;21.67;19.17;;;18.00;93.50;;;;;;6216826;23;20008;-88
2022/09/26 07:32:50;;;;;;;21.15;18.95;;;18.10;93.40;;;;;;6245561;23;20078;-87
2022/09/26 07:35:16;;;;;;;20.48;18.33;;;18.20;93.20;;;;;;6246785;23;20319;-88
2022/09/26 07:37:43;;;;;;;27.88;24.83;;;18.20;92.90;;;;;;6247803;23;20016;-87
2022/09/26 07:40:09;;;;;;;32.08;25.77;;;18.00;92.80;;;;;;6248024;23;19996;-87
2022/09/26 07:42:37;;;;;;;23.58;21.08;;;17.90;93.10;;;;;;6247745;23;20080;-88
2022/09/26 07:45:04;;;;;;;22.85;20.45;;;17.80;93.20;;;;;;6248006;23;20057;-88
2022/09/26 07:50:17;;;;;;;30.35;25.77;;;17.90;93.30;;;;;;6250722;23;20019;-86
2022/09/26 07:52:45;;;;;;;25.80;21.20;;;17.90;93.20;;;;;;6252636;23;20000;-86
2022/09/26 07:55:18;;;;;;;19.02;17.00;;;17.90;93.30;;;;;;6245527;23;20032;-85
2022/09/26 07:57:47;;;;;;;21.02;18.33;;;18.00;93.20;;;;;;6246114;23;20012;-88
2022/09/26 08:00:15;;;;;;;18.25;16.02;;;18.10;93.20;;;;;;6246377;23;20008;-86
2022/09/26 08:02:44;;;;;;;25.15;20.08;;;18.20;93.10;;;;;;6244163;23;20027;-86
2022/09/26 08:05:20;;;;;;;20.25;18.08;;;18.30;92.90;;;;;;6243645;23;20520;-87
2022/09/26 08:07:48;;;;;;;17.33;15.52;;;18.40;92.90;;;;;;6243257;23;20000;-83
2022/09/26 08:10:20;;;;;;;19.58;16.33;;;18.50;92.80;;;;;;6242239;23;20043;-84
2022/09/26 08:12:47;;;;;;;23.30;18.92;;;18.60;92.70;;;;;;6242040;23;20004;-84
2022/09/26 08:15:13;;;;;;;22.00;18.25;;;18.80;92.40;;;;;;6242016;23;20051;-84
2022/09/26 08:17:39;;;;;;;18.40;16.30;;;18.80;92.10;;;;;;6242275;23;20075;-84
2022/09/26 08:20:06;;;;;;;21.45;17.73;;;18.90;92.10;;;;;;6242101;23;20024;-83
2022/09/26 08:22:31;;;;;;;20.73;18.48;;;18.90;91.70;;;;;;6245314;23;20000;-82
2022/09/26 08:24:57;;;;;;;19.90;17.83;;;18.90;91.60;;;;;;6242568;23;20000;-83
2022/09/26 08:27:25;;;;;;;19.98;17.85;;;18.90;91.60;;;;;;6216158;23;20082;-83
2022/09/26 08:29:52;;;;;;;18.85;16.67;;;19.00;91.60;;;;;;6215401;23;20411;-83
2022/09/26 08:32:19;;;;;;;20.63;18.42;;;19.10;91.60;;;;;;6242655;23;19996;-83
2022/09/26 08:34:46;;;;;;;25.90;23.08;;;19.20;91.20;;;;;;6215352;23;20015;-84
2022/09/26 08:37:12;;;;;;;17.92;16.05;;;19.20;90.70;;;;;;6241643;23;20004;-83
2022/09/26 08:39:38;;;;;;;17.05;15.18;;;19.20;90.90;;;;;;6242126;23;20008;-83
2022/09/26 08:42:10;;;;;;;21.90;18.15;;;19.30;91.20;;;;;;6242284;23;20004;-82
2022/09/26 08:44:40;;;;;;;18.45;16.50;;;19.40;91.10;;;;;;6215313;23;20012;-83
2022/09/26 08:47:30;;;;;;;;;;;19.60;91.00;;;;;;6242355;23;20079;-84
2022/09/26 08:50:14;;;;;;;16.40;14.63;;;19.70;90.90;;;;;;6217853;23;19903;-82
2022/09/26 08:52:50;;;;;;;17.27;15.48;;;19.80;90.70;;;;;;6243213;23;19996;-84
2022/09/26 08:55:30;;;;;;;18.20;16.20;;;19.90;90.40;;;;;;6209613;23;20000;-87
2022/09/26 08:58:02;;;;;;;18.38;15.75;;;19.90;89.80;;;;;;6241523;23;20006;-87
2022/09/26 09:00:32;;;;;;;17.90;15.88;;;19.90;90.00;;;;;;6243068;23;20004;-87
2022/09/26 09:03:00;;;;;;;20.85;17.23;;;19.90;89.60;;;;;;6242271;23;20004;-87
2022/09/26 09:05:31;;;;;;;17.05;15.13;;;20.00;89.60;;;;;;6242933;23;20016;-88
2022/09/26 09:07:59;;;;;;;17.42;15.57;;;20.00;89.10;;;;;;6243073;23;20481;-86
2022/09/26 09:10:46;;;;;;;16.40;12.60;;;19.90;89.30;;;;;;6243488;23;20021;-87
2022/09/26 09:13:33;;;;;;;18.20;15.75;;;20.00;89.50;;;;;;6243351;23;20004;-86
2022/09/26 09:16:17;;;;;;;15.38;13.65;;;20.10;89.60;;;;;;6243759;23;20067;-86
2022/09/26 09:19:30;;;;;;;19.55;17.45;;;20.20;89.30;;;;;;6240961;23;20007;-85
2022/09/26 09:22:22;;;;;;;16.55;14.60;;;20.30;88.40;;;;;;6179034;23;20012;-85
2022/09/26 09:24:58;;;;;;;16.60;14.88;;;20.30;88.60;;;;;;6244278;23;20012;-85
2022/09/26 09:27:45;;;;;;;21.77;17.75;;;20.40;88.50;;;;;;6241371;23;20004;-85
2022/09/26 09:30:44;;;;;;;22.80;17.08;;;20.50;89.10;;;;;;6243614;23;20092;-84
2022/09/26 09:33:20;;;;;;;27.55;19.67;;;20.50;88.50;;;;;;6241421;23;20086;-84
2022/09/26 09:35:54;;;;;;;21.90;19.45;;;20.60;87.30;;;;;;6240640;23;20403;-83
2022/09/26 09:38:32;;;;;;;20.75;18.50;;;20.70;88.00;;;;;;6241711;23;19997;-83
2022/09/26 09:41:12;;;;;;;24.52;19.25;;;20.70;87.10;;;;;;6241952;23;20008;-86
2022/09/26 09:43:46;;;;;;;23.92;18.45;;;20.70;87.20;;;;;;6241624;23;20067;-85
2022/09/26 09:46:31;;;;;;;18.65;14.90;;;20.80;86.40;;;;;;6241182;23;20729;-84
2022/09/26 09:49:16;;;;;;;17.58;14.90;;;21.00;86.90;;;;;;6213308;23;20008;-84
2022/09/26 09:52:06;;;;;;;19.05;15.13;;;21.10;86.80;;;;;;6243289;23;20007;-84
2022/09/26 09:54:44;;;;;;;;;;;21.30;84.00;;;;;;6240630;23;20038;-83
2022/09/26 09:57:25;;;;;;;17.65;15.55;;;21.50;85.30;;;;;;6241043;23;19906;-85
2022/09/26 10:00:14;;;;;;;17.85;13.85;;;21.60;83.60;;;;;;6242087;23;20043;-84
2022/09/26 10:03:04;;;;;;;18.63;13.20;;;21.70;84.20;;;;;;6214380;23;20015;-85
2022/09/26 10:05:50;;;;;;;15.23;13.13;;;21.90;84.40;;;;;;6214404;23;20282;-85
2022/09/26 10:08:34;;;;;;;18.13;13.65;;;21.90;83.30;;;;;;6215029;23;20073;-85
2022/09/26 10:11:38;;;;;;;17.10;14.60;;;22.10;83.60;;;;;;6243755;23;20023;-86
2022/09/26 10:14:14;;;;;;;21.60;19.27;;;22.30;83.30;;;;;;6241605;23;20000;-85
2022/09/26 10:17:07;;;;;;;22.70;19.00;;;22.40;79.80;;;;;;6242396;23;20000;-85
2022/09/26 10:19:36;;;;;;;21.00;17.50;;;22.20;79.20;;;;;;6241092;23;20008;-81
2022/09/26 10:22:02;;;;;;;19.63;15.23;;;22.10;80.90;;;;;;6240069;23;20075;-84
2022/09/26 10:24:39;;;;;;;16.88;14.48;;;22.20;82.20;;;;;;6242345;23;20069;-84
2022/09/26 10:27:34;;;;;;;19.35;14.95;;;22.60;82.60;;;;;;6242266;23;20012;-91
2022/09/26 10:30:24;;;;;;;15.88;12.98;;;22.90;81.50;;;;;;6236915;23;20011;-87
2022/09/26 10:32:52;;;;;;;;;;;23.00;80.50;;;;;;6243551;23;20450;-84
2022/09/26 10:35:39;;;;;;;14.10;12.60;;;23.30;79.60;;;;;;6215431;23;20668;-84
2022/09/26 10:38:14;;;;;;;19.73;17.60;;;23.50;79.10;;;;;;6243393;23;20004;-90
2022/09/26 10:40:53;;;;;;;14.23;12.82;;;23.70;77.00;;;;;;6243214;23;20079;-88
2022/09/26 10:43:20;;;;;;;15.98;14.32;;;23.80;77.40;;;;;;6217227;23;20020;-88
2022/09/26 10:45:52;;;;;;;17.75;15.23;;;23.80;77.40;;;;;;6245037;23;20001;-89
2022/09/26 10:48:20;;;;;;;16.00;14.40;;;23.90;77.40;;;;;;6219504;23;20007;-89
2022/09/26 10:50:51;;;;;;;17.95;16.05;;;24.00;76.60;;;;;;6219520;23;20026;-89
2022/09/26 10:53:18;;;;;;;;;;;24.10;74.90;;;;;;6246647;23;20119;-89
2022/09/26 10:55:57;;;;;;;18.83;16.27;;;24.00;74.90;;;;;;6219443;23;19899;-88
2022/09/26 10:58:28;;;;;;;21.45;17.77;;;23.80;74.50;;;;;;6219223;23;20011;-88
2022/09/26 11:00:56;;;;;;;21.23;19.05;;;23.50;74.70;;;;;;6246194;23;20011;-89
2022/09/26 11:03:39;;;;;;;22.73;20.45;;;23.30;75.00;;;;;;6245610;23;20004;-88
2022/09/26 11:06:13;;;;;;;22.60;20.20;;;23.20;75.30;;;;;;6245942;23;20024;-89
2022/09/26 11:08:42;;;;;;;17.00;13.27;;;23.00;76.90;;;;;;6247268;23;20019;-89
2022/09/26 11:11:14;;;;;;;22.58;20.15;;;22.90;77.40;;;;;;6247711;23;19996;-88
2022/09/26 11:13:49;;;;;;;15.80;14.02;;;22.90;77.70;;;;;;6219468;23;20007;-84
2022/09/26 11:16:18;;;;;;;15.38;13.77;;;23.20;77.90;;;;;;6246365;23;19992;-84
2022/09/26 11:18:49;;;;;;;13.77;12.48;;;23.60;77.90;;;;;;6220163;23;20110;-85
2022/09/26 11:21:27;;;;;;;15.77;13.35;;;24.00;77.60;;;;;;6220569;23;20157;-85
2022/09/26 11:24:18;;;;;;;21.15;15.77;;;24.30;76.60;;;;;;6246261;23;20010;-84
2022/09/26 11:27:04;;;;;;;17.35;15.50;;;24.60;75.30;;;;;;6246826;23;20062;-85
2022/09/26 11:29:54;;;;;;;14.90;13.32;;;24.80;74.60;;;;;;6220368;23;20008;-84
2022/09/26 11:32:23;;;;;;;;;;;25.00;74.40;;;;;;6246562;23;20038;-84
2022/09/26 11:34:52;;;;;;;14.35;12.88;;;25.20;73.50;;;;;;6245301;23;20326;-84
2022/09/26 11:37:17;;;;;;;15.05;12.75;;;25.40;73.80;;;;;;6219532;23;20326;-83
2022/09/26 11:40:09;;;;;;;19.48;14.65;;;25.70;73.00;;;;;;6246481;23;19996;-84
2022/09/26 11:42:54;;;;;;;14.60;13.10;;;25.80;71.40;;;;;;6246197;23;20008;-84
2022/09/26 11:45:30;;;;;;;18.25;16.10;;;26.30;71.50;;;;;;6253178;23;20023;-89
2022/09/26 11:48:20;;;;;;;13.93;12.50;;;26.60;69.50;;;;;;6248083;23;20066;-84
2022/09/26 11:51:01;;;;;;;11.48;9.88;;;26.60;68.50;;;;;;6246712;23;20007;-83
2022/09/26 11:53:53;;;;;;;12.77;11.48;;;26.40;68.50;;;;;;6247832;23;20048;-84
2022/09/26 11:56:41;;;;;;;14.05;11.68;;;26.10;68.60;;;;;;6247415;23;20007;-83
2022/09/26 11:59:31;;;;;;;12.55;11.23;;;25.80;69.20;;;;;;6219511;23;20062;-83
2022/09/26 12:02:30;;;;;;;19.30;16.02;;;25.50;69.60;;;;;;6245951;23;20004;-83
2022/09/26 12:05:01;;;;;;;19.58;17.58;;;25.40;70.50;;;;;;6219822;23;20400;-83
2022/09/26 12:07:30;;;;;;;25.55;22.60;;;25.20;71.00;;;;;;6246275;23;20004;-83
2022/09/26 12:10:24;;;;;;;14.70;13.18;;;24.50;70.60;;;;;;6247518;23;20035;-90
2022/09/26 12:13:05;;;;;;;15.05;13.50;;;24.40;72.20;;;;;;6247014;23;20024;-90
2022/09/26 12:16:02;;;;;;;18.40;14.35;;;24.50;72.90;;;;;;6245705;23;20000;-85
2022/09/26 12:18:52;;;;;;;20.33;18.02;;;25.10;72.60;;;;;;6239912;23;20090;-90
2022/09/26 12:21:38;;;;;;;31.23;22.25;;;25.30;68.90;;;;;;6244178;23;20004;-91
2022/09/26 12:24:18;;;;;;;19.00;14.18;;;25.20;68.30;;;;;;6245083;23;20004;-84
2022/09/26 12:27:19;;;;;;;13.75;12.35;;;25.50;69.50;;;;;;6245088;23;20126;-84
2022/09/26 12:30:09;;;;;;;10.52;9.52;;;26.00;68.60;;;;;;6218356;23;20004;-90
2022/09/26 12:33:28;;;;;;;14.10;12.60;;;26.60;68.50;;;;;;6245956;23;20027;-86
2022/09/26 12:36:20;;;;;;;13.43;12.02;;;26.80;66.00;;;;;;6182107;23;20012;-84
2022/09/26 12:38:52;;;;;;;13.88;12.38;;;27.30;65.70;;;;;;6155229;23;20015;-84
2022/09/26 12:41:29;;;;;;;12.50;11.20;;;27.50;65.50;;;;;;6221619;23;20035;-84
2022/09/26 12:43:55;;;;;;;18.35;15.45;;;27.70;65.20;;;;;;6238996;23;20074;-85
2022/09/26 12:46:38;;;;;;;14.80;12.70;;;27.50;62.90;;;;;;6217926;23;20430;-91
2022/09/26 12:49:26;;;;;;;24.77;22.13;;;27.40;64.10;;;;;;6244114;23;20004;-84
2022/09/26 12:51:57;;;;;;;13.45;12.15;;;26.70;63.30;;;;;;6218147;23;20331;-83
2022/09/26 12:54:37;;;;;;;15.07;13.50;;;26.90;65.10;;;;;;6244289;23;20019;-88
2022/09/26 12:57:23;;;;;;;14.50;12.63;;;27.20;65.10;;;;;;6214592;23;20281;-87
2022/09/26 13:00:11;;;;;;;12.40;11.13;;;26.90;62.00;;;;;;6216919;23;20004;-84
2022/09/26 13:03:20;;;;;;;13.30;11.95;;;26.70;64.10;;;;;;6242618;23;20008;-86
2022/09/26 13:05:49;;;;;;;19.10;16.40;;;26.80;64.30;;;;;;6162960;23;20031;-84
2022/09/26 13:08:37;;;;;;;13.25;11.95;;;26.50;64.10;;;;;;6213584;23;20008;-85
2022/09/26 13:11:17;;;;;;;12.23;10.95;;;26.30;64.70;;;;;;6207450;23;20001;-83
2022/09/26 13:14:19;;;;;;;12.60;11.38;;;26.20;65.20;;;;;;6213637;23;20007;-83
2022/09/26 13:17:09;;;;;;;14.48;12.30;;;26.10;66.00;;;;;;6214222;23;20072;-84